Time;durP1;ratioP1;P1;durP2;ratioP2;P2;SDS_P1;SDS_P2;PMS_P1;PMS_P2;Temp;Humidity;BMP_temperature;BMP_pressure;BME280_temperature;BME280_humidity;BME280_pressure;Samples;Min_cycle;Max_cycle;Signal;HPM_P1;HPM_P2
2021/11/11 00:00:48;;;;;;;9.93;3.13;;;;;;;6.84;89.64;100855.22;4994692;28;20037;-68
2021/11/11 00:03:14;;;;;;;4.53;3.27;;;;;;;6.82;89.67;100849.22;4994526;28;20121;-64
2021/11/11 00:05:40;;;;;;;6.93;3.60;;;;;;;6.88;89.32;100859.25;4994551;28;20870;-67
2021/11/11 00:08:07;;;;;;;11.83;3.30;;;;;;;6.89;89.23;100854.78;4994565;28;20124;-67
2021/11/11 00:10:33;;;;;;;7.07;3.23;;;;;;;6.89;88.85;100855.63;4975933;28;20046;-68
2021/11/11 00:13:00;;;;;;;8.27;2.57;;;;;;;6.89;89.03;100855.63;4994487;28;20046;-64
2021/11/11 00:15:27;;;;;;;7.73;2.50;;;;;;;6.89;89.05;100849.50;4994139;28;20449;-63
2021/11/11 00:17:53;;;;;;;5.00;2.80;;;;;;;6.84;89.50;100852.56;4994772;28;20045;-64
2021/11/11 00:20:24;;;;;;;4.17;2.13;;;;;;;6.87;89.50;100851.44;4994519;28;20046;-64
2021/11/11 00:22:50;;;;;;;11.27;3.30;;;;;;;6.80;88.87;100836.13;4994357;28;20053;-64
2021/11/11 00:25:18;;;;;;;8.53;2.77;;;;;;;6.76;89.08;100833.88;4994311;28;20085;-62
2021/11/11 00:27:46;;;;;;;8.77;3.47;;;;;;;6.69;89.54;100832.75;4993854;28;20482;-63
2021/11/11 00:30:14;;;;;;;8.27;3.13;;;;;;;6.68;89.65;100839.03;4994203;28;20501;-64
2021/11/11 00:32:40;;;;;;;6.60;2.90;;;;;;;6.66;88.88;100828.56;4976202;28;20045;-64
2021/11/11 00:35:15;;;;;;;8.30;2.50;;;;;;;6.67;89.51;100834.72;4993926;28;20560;-68
2021/11/11 00:37:40;;;;;;;5.27;2.90;;;;;;;6.63;89.22;100838.56;4993946;28;20042;-65
2021/11/11 00:40:07;;;;;;;6.70;2.20;;;;;;;6.64;89.57;100840.25;4993850;28;20037;-63
2021/11/11 00:42:33;;;;;;;18.63;2.60;;;;;;;6.65;89.55;100842.78;4994039;28;20076;-66
2021/11/11 00:44:59;;;;;;;7.17;2.67;;;;;;;6.72;88.85;100845.72;4993666;28;20034;-64
2021/11/11 00:47:27;;;;;;;7.97;2.67;;;;;;;6.73;88.70;100850.03;4973799;28;20086;-62
2021/11/11 00:49:53;;;;;;;7.37;2.50;;;;;;;6.74;88.21;100841.13;4993422;28;20050;-64
2021/11/11 00:52:19;;;;;;;9.03;2.67;;;;;;;6.74;88.38;100844.59;4993712;28;20548;-65
2021/11/11 00:54:46;;;;;;;6.03;2.57;;;;;;;6.75;88.23;100848.09;4993649;28;20085;-64
2021/11/11 00:57:11;;;;;;;1.90;1.60;;;;;;;6.73;87.81;100850.88;4993593;28;20058;-64
2021/11/11 00:59:40;;;;;;;7.63;2.20;;;;;;;6.73;87.61;100855.34;4991471;28;20529;-67
2021/11/11 01:02:09;;;;;;;6.97;2.70;;;;;;;6.74;88.16;100872.88;4993307;28;20030;-61
2021/11/11 01:04:36;;;;;;;8.38;2.35;;;;;;;6.71;87.75;100873.16;4993201;28;20042;-63
2021/11/11 01:07:02;;;;;;;4.13;1.97;;;;;;;6.76;88.15;100881.53;4972847;28;20125;-65
2021/11/11 01:09:30;;;;;;;5.70;2.20;;;;;;;6.70;87.55;100876.78;4974036;28;20042;-66
2021/11/11 01:11:57;;;;;;;8.07;2.30;;;;;;;6.76;87.98;100877.06;4993488;28;20040;-66
2021/11/11 01:14:24;;;;;;;9.97;2.87;;;;;;;6.75;88.07;100879.84;4993605;28;20494;-65
2021/11/11 01:16:52;;;;;;;6.00;2.53;;;;;;;6.75;87.45;100875.41;4993100;28;20085;-62
2021/11/11 01:19:19;;;;;;;5.87;2.30;;;;;;;6.77;88.39;100884.03;4992994;28;20038;-64
2021/11/11 01:21:45;;;;;;;5.60;2.73;;;;;;;6.78;87.80;100895.47;4993307;28;20405;-64
2021/11/11 01:24:11;;;;;;;4.80;2.53;;;;;;;6.75;87.42;100891.28;4993135;28;20034;-66
2021/11/11 01:26:36;;;;;;;5.87;2.07;;;;;;;6.76;87.30;100897.41;4992958;28;20551;-63
2021/11/11 01:29:03;;;;;;;7.83;2.60;;;;;;;6.69;87.40;100875.09;4993287;28;20045;-66
2021/11/11 01:31:30;;;;;;;5.80;2.33;;;;;;;6.71;87.49;100883.75;4993025;28;20042;-65
2021/11/11 01:33:57;;;;;;;15.10;2.60;;;;;;;6.72;87.03;100894.19;4993129;28;20069;-63
2021/11/11 01:36:23;;;;;;;7.07;2.57;;;;;;;6.72;87.14;100902.13;4992968;28;20085;-63
2021/11/11 01:38:49;;;;;;;3.53;2.43;;;;;;;6.68;87.00;100905.19;4992918;28;20030;-62
2021/11/11 01:41:14;;;;;;;6.60;2.47;;;;;;;6.71;87.37;100902.28;4992873;28;20193;-63
2021/11/11 01:43:40;;;;;;;7.43;2.43;;;;;;;6.67;87.06;100900.88;4975030;28;20065;-65
2021/11/11 01:46:06;;;;;;;4.47;2.97;;;;;;;6.67;86.97;100909.66;4992585;28;20042;-63
2021/11/11 01:48:31;;;;;;;3.13;1.80;;;;;;;6.65;87.40;100905.44;4992677;28;20493;-63
2021/11/11 01:51:00;;;;;;;6.67;2.27;;;;;;;6.65;87.21;100924.81;4992706;28;20485;-63
2021/11/11 01:53:26;;;;;;;8.67;3.03;;;;;;;6.62;86.70;100922.41;4973176;28;20418;-64
2021/11/11 01:55:52;;;;;;;4.93;2.07;;;;;;;6.62;86.30;100921.56;4996126;28;20033;-63
2021/11/11 01:58:18;;;;;;;5.47;2.33;;;;;;;6.63;86.67;100928.53;4992772;28;20114;-63
2021/11/11 02:00:48;;;;;;;7.10;2.63;;;;;;;6.67;87.19;100924.69;4984865;28;20097;-63
2021/11/11 02:03:15;;;;;;;8.87;2.33;;;;;;;6.68;86.62;100939.59;4992544;28;20045;-63
2021/11/11 02:05:42;;;;;;;6.27;3.10;;;;;;;6.70;87.02;100941.13;4992528;28;20092;-64
2021/11/11 02:08:08;;;;;;;5.13;2.00;;;;;;;6.69;86.50;100930.69;4992336;28;20061;-65
2021/11/11 02:10:35;;;;;;;9.10;2.60;;;;;;;6.71;86.77;100932.22;4992405;28;20065;-63
2021/11/11 02:13:04;;;;;;;7.38;3.10;;;;;;;6.65;85.68;100922.19;4992413;28;20125;-65
2021/11/11 02:15:32;;;;;;;4.88;2.70;;;;;;;6.72;86.75;100948.94;4992301;28;20088;-62
2021/11/11 02:18:01;;;;;;;6.25;2.45;;;;;;;6.71;85.98;100940.16;4992537;28;20438;-67
2021/11/11 02:20:30;;;;;;;5.38;2.78;;;;;;;6.72;86.34;100938.34;4992513;28;20081;-67
2021/11/11 02:22:56;;;;;;;;;;;;;;;6.71;85.83;100934.88;4993351;28;20034;-66
2021/11/11 02:25:24;;;;;;;8.10;4.40;;;;;;;6.66;86.56;100946.84;4992261;28;19921;-66
2021/11/11 02:27:53;;;;;;;7.47;3.38;;;;;;;6.72;86.01;100959.53;4992415;28;20505;-65
2021/11/11 02:30:23;;;;;;;7.57;2.40;;;;;;;6.71;86.32;100963.97;4992448;28;20497;-67
2021/11/11 02:32:49;;;;;;;6.30;2.33;;;;;;;6.70;86.12;100980.84;4992466;28;20026;-65
2021/11/11 02:35:18;;;;;;;9.67;2.93;;;;;;;6.70;86.38;100980.00;4992706;28;20051;-65
2021/11/11 02:37:45;;;;;;;7.37;2.10;;;;;;;6.65;86.92;100975.09;4984389;28;20052;-64
2021/11/11 02:40:13;;;;;;;7.70;2.53;;;;;;;6.70;86.37;100996.72;4971697;28;20494;-66
2021/11/11 02:42:41;;;;;;;6.03;2.25;;;;;;;6.71;86.19;100989.63;4991904;28;20034;-66
2021/11/11 02:45:09;;;;;;;7.80;2.90;;;;;;;6.68;86.59;100997.81;4992423;28;20042;-66
2021/11/11 02:47:36;;;;;;;6.95;2.50;;;;;;;6.69;86.28;100991.56;4992241;28;20030;-63
2021/11/11 02:50:02;;;;;;;9.33;2.23;;;;;;;6.63;86.12;100989.41;4992232;28;20041;-65
2021/11/11 02:52:28;;;;;;;3.00;2.50;;;;;;;6.61;85.83;100988.72;4992047;28;20066;-66
2021/11/11 02:54:53;;;;;;;4.83;2.50;;;;;;;6.58;85.91;101016.28;4991938;28;20070;-65
2021/11/11 02:57:20;;;;;;;9.10;3.83;;;;;;;6.57;85.47;101003.19;4992164;28;20634;-67
2021/11/11 02:59:49;;;;;;;4.07;2.05;;;;;;;6.56;85.75;101004.16;4991845;28;20030;-65
2021/11/11 03:02:22;;;;;;;8.30;2.38;;;;;;;6.57;86.05;101000.53;4992005;28;20057;-63
2021/11/11 03:04:48;;;;;;;5.37;2.00;;;;;;;6.58;85.10;101010.16;4992024;28;20034;-63
2021/11/11 03:07:13;;;;;;;4.40;2.50;;;;;;;6.58;85.45;101004.84;4991914;28;20049;-65
2021/11/11 03:09:41;;;;;;;5.23;2.20;;;;;;;6.56;85.02;101010.28;4991789;28;20062;-65
2021/11/11 03:12:07;;;;;;;5.23;2.03;;;;;;;6.48;84.82;101000.34;4991989;28;20041;-64
2021/11/11 03:14:33;;;;;;;13.03;2.60;;;;;;;6.52;85.22;101017.63;4992070;28;20035;-63
2021/11/11 03:16:59;;;;;;;6.70;2.70;;;;;;;6.50;85.05;101019.56;4971319;28;20045;-64
2021/11/11 03:19:25;;;;;;;6.43;2.43;;;;;;;6.51;85.23;101015.13;4972156;28;20417;-65
2021/11/11 03:21:50;;;;;;;9.73;2.40;;;;;;;6.50;85.21;101026.69;4994153;28;20034;-65
2021/11/11 03:24:16;;;;;;;9.50;3.13;;;;;;;6.47;85.30;101024.28;4995413;28;20034;-61
2021/11/11 03:26:42;;;;;;;7.23;2.10;;;;;;;6.42;85.17;101011.47;4995406;28;20069;-64
2021/11/11 03:29:07;;;;;;;8.30;2.80;;;;;;;6.45;85.08;101032.38;4995358;28;20044;-64
2021/11/11 03:31:33;;;;;;;3.97;2.10;;;;;;;6.42;84.74;101037.91;4995351;28;20042;-63
2021/11/11 03:34:00;;;;;;;5.63;2.00;;;;;;;6.39;84.93;101030.25;4985919;28;20060;-64
2021/11/11 03:36:26;;;;;;;6.30;2.20;;;;;;;6.34;85.05;101035.06;5014659;28;20180;-62
2021/11/11 03:38:51;;;;;;;7.70;1.97;;;;;;;6.33;84.58;101033.38;5014384;28;20128;-61
2021/11/11 03:41:17;;;;;;;11.07;2.80;;;;;;;6.34;85.32;101034.22;5014812;28;20041;-62
2021/11/11 03:43:42;;;;;;;8.97;2.70;;;;;;;6.34;84.38;101040.34;5014399;28;20038;-61
2021/11/11 03:46:11;;;;;;;3.57;1.90;;;;;;;6.26;84.51;101040.16;5014371;28;20044;-62
2021/11/11 03:48:38;;;;;;;6.17;2.93;;;;;;;6.24;84.94;101038.59;5014197;28;20037;-63
2021/11/11 03:51:05;;;;;;;7.50;1.90;;;;;;;6.17;85.29;101043.56;5014179;28;20037;-63
2021/11/11 03:53:31;;;;;;;8.27;2.50;;;;;;;6.13;85.14;101036.88;5013946;28;20042;-66
2021/11/11 03:55:57;;;;;;;5.40;2.17;;;;;;;6.10;85.44;101035.31;5014245;28;20100;-63
2021/11/11 03:58:23;;;;;;;3.67;2.33;;;;;;;6.07;85.66;101037.34;5014150;28;20053;-65
2021/11/11 04:00:49;;;;;;;3.77;2.13;;;;;;;6.03;85.51;101041.22;5014207;28;20488;-64
2021/11/11 04:03:14;;;;;;;7.93;2.30;;;;;;;6.01;85.61;101048.44;5014489;28;20095;-67
2021/11/11 04:05:40;;;;;;;8.37;2.13;;;;;;;5.96;85.94;101040.88;5013780;28;20045;-64
2021/11/11 04:08:06;;;;;;;4.07;2.10;;;;;;;5.93;86.56;101051.72;5014430;28;20433;-65
2021/11/11 04:10:31;;;;;;;4.07;2.63;;;;;;;5.83;86.54;101038.38;5014385;28;20042;-63
2021/11/11 04:13:02;;;;;;;8.03;2.67;;;;;;;5.89;86.82;101045.84;5014257;28;20440;-66
2021/11/11 04:15:29;;;;;;;4.13;2.43;;;;;;;5.89;86.28;101051.13;5014109;28;20041;-64
2021/11/11 04:17:57;;;;;;;5.32;2.45;;;;;;;5.97;86.71;101052.31;5013818;28;20554;-65
2021/11/11 04:20:24;;;;;;;12.97;4.10;;;;;;;5.98;86.02;101053.97;4996193;28;20045;-64
2021/11/11 04:22:49;;;;;;;8.23;2.63;;;;;;;5.98;86.04;101061.91;5014142;28;20038;-67
2021/11/11 04:25:28;;;;;;;9.40;2.67;;;;;;;5.97;85.82;101047.84;5014107;28;20037;-67
2021/11/11 04:27:59;;;;;;;;;;;;;;;6.09;85.61;101064.53;5014551;28;20038;-69
2021/11/11 04:30:30;;;;;;;6.33;2.90;;;;;;;6.07;85.25;101066.44;4996275;28;19925;-69
2021/11/11 04:32:57;;;;;;;3.43;2.40;;;;;;;6.08;86.10;101062.84;5013315;28;20044;-68
2021/11/11 04:35:25;;;;;;;5.87;3.30;;;;;;;6.01;85.65;101059.84;4996484;28;20057;-70
2021/11/11 04:38:01;;;;;;;10.90;2.72;;;;;;;5.99;85.91;101061.78;5014155;28;20053;-68
2021/11/11 04:43:26;;;;;;;5.70;2.33;;;;;;;5.93;85.87;101061.44;5013248;28;20572;-65
2021/11/11 04:51:16;;;;;;;6.72;2.97;;;;;;;5.60;85.85;101068.47;5013206;28;20042;-63
2021/11/11 04:59:44;;;;;;;3.67;2.33;;;;;;;5.52;86.62;101052.41;4979750;28;20052;-60
2021/11/11 05:04:57;;;;;;;7.20;2.97;;;;;;;5.51;87.40;101051.56;5012820;28;20026;-60
2021/11/11 05:07:23;;;;;;;16.07;4.47;;;;;;;5.45;87.39;101056.47;5012632;28;20444;-60
2021/11/11 05:09:49;;;;;;;6.43;2.43;;;;;;;5.32;87.94;101050.50;4995486;28;20053;-61
2021/11/11 05:12:15;;;;;;;47.53;19.73;;;;;;;5.25;87.78;101051.00;5020378;28;20037;-61
2021/11/11 05:14:41;;;;;;;5.70;2.70;;;;;;;5.21;88.12;101060.13;5042609;28;20044;-61
2021/11/11 05:17:08;;;;;;;9.60;2.27;;;;;;;5.15;88.28;101062.38;5038480;28;20030;-61
2021/11/11 05:19:34;;;;;;;5.10;2.30;;;;;;;5.09;88.66;101069.00;5038194;28;20510;-63
2021/11/11 05:22:00;;;;;;;8.10;2.47;;;;;;;5.10;88.60;101078.59;5037252;28;20143;-58
2021/11/11 05:24:25;;;;;;;7.60;2.50;;;;;;;5.10;88.49;101083.88;5038487;28;20029;-62
2021/11/11 05:26:51;;;;;;;6.80;2.13;;;;;;;5.10;89.25;101102.34;5038301;28;20040;-62
2021/11/11 05:29:16;;;;;;;6.77;2.90;;;;;;;5.14;88.42;101100.31;5034519;28;20064;-58
2021/11/11 05:31:43;;;;;;;9.10;2.70;;;;;;;5.12;88.41;101092.50;5031832;28;20059;-63
2021/11/11 05:34:10;;;;;;;8.73;3.03;;;;;;;5.08;88.75;101091.06;5039902;28;20053;-63
2021/11/11 05:36:36;;;;;;;6.60;3.27;;;;;;;5.04;88.49;101091.44;5050051;28;20033;-69
2021/11/11 05:39:01;;;;;;;7.70;2.80;;;;;;;5.02;88.62;101096.84;5050473;28;20041;-66
2021/11/11 05:41:27;;;;;;;7.50;2.23;;;;;;;4.98;89.03;101090.94;5050058;28;20033;-63
2021/11/11 05:43:53;;;;;;;7.23;2.10;;;;;;;4.88;89.05;101099.69;5049168;28;20033;-61
2021/11/11 05:46:18;;;;;;;5.53;2.80;;;;;;;4.85;89.17;101090.19;5050482;28;20134;-61
2021/11/11 05:48:44;;;;;;;8.87;2.37;;;;;;;4.88;88.92;101097.88;5052086;28;20041;-63
2021/11/11 05:51:10;;;;;;;7.43;2.73;;;;;;;4.90;89.27;101095.97;5051437;28;20032;-63
2021/11/11 05:53:36;;;;;;;8.17;3.30;;;;;;;4.92;88.65;101088.78;5051813;28;20041;-62
2021/11/11 05:56:02;;;;;;;7.70;2.90;;;;;;;4.96;88.75;101092.03;5051687;28;20098;-63
2021/11/11 05:58:29;;;;;;;10.30;3.60;;;;;;;4.98;88.59;101100.66;5051805;28;20032;-63
2021/11/11 06:00:54;;;;;;;6.10;2.97;;;;;;;4.92;88.16;101093.22;5051878;28;20128;-63
2021/11/11 06:03:20;;;;;;;6.37;2.57;;;;;;;4.97;88.79;101101.63;5051835;28;20504;-61
2021/11/11 06:05:45;;;;;;;5.53;2.60;;;;;;;4.84;87.99;101082.41;5051570;28;20053;-63
2021/11/11 06:08:11;;;;;;;5.07;3.40;;;;;;;4.95;88.23;101114.09;5051747;28;20041;-60
2021/11/11 06:10:37;;;;;;;7.17;2.70;;;;;;;4.92;88.81;101119.63;5051345;28;20472;-61
2021/11/11 06:13:02;;;;;;;10.10;3.60;;;;;;;4.90;87.97;101114.44;5051477;28;20033;-62
2021/11/11 06:15:31;;;;;;;6.03;2.85;;;;;;;4.91;88.59;101120.56;5049860;28;20404;-62
2021/11/11 06:17:59;;;;;;;10.47;3.40;;;;;;;4.87;89.05;101121.75;5033058;28;20507;-63
2021/11/11 06:20:32;;;;;;;14.23;3.17;;;;;;;4.84;89.07;101124.63;5051071;28;20267;-66
2021/11/11 06:22:59;;;;;;;7.80;2.90;;;;;;;4.80;88.81;101117.91;5051396;28;20033;-65
2021/11/11 06:25:26;;;;;;;7.60;3.47;;;;;;;4.82;88.63;101116.81;5050972;28;20033;-65
2021/11/11 06:27:52;;;;;;;8.00;2.67;;;;;;;4.79;89.26;101114.44;5051135;28;20048;-63
2021/11/11 06:30:18;;;;;;;6.17;2.20;;;;;;;4.90;89.02;101119.72;5051457;28;20032;-68
2021/11/11 06:32:43;;;;;;;6.03;2.77;;;;;;;4.96;88.55;101123.72;5051199;28;20076;-69
2021/11/11 06:35:10;;;;;;;5.90;2.70;;;;;;;5.01;88.46;101121.53;5051440;28;20484;-67
2021/11/11 06:37:37;;;;;;;5.77;3.00;;;;;;;5.07;87.72;101130.78;5051502;28;20087;-64
2021/11/11 06:40:04;;;;;;;5.10;2.40;;;;;;;5.11;87.78;101132.22;5051289;28;20045;-65
2021/11/11 06:42:32;;;;;;;4.83;2.77;;;;;;;5.20;88.06;101137.66;5051429;28;20342;-62
2021/11/11 06:44:58;;;;;;;5.57;2.60;;;;;;;5.35;87.17;101124.22;5051494;28;20037;-60
2021/11/11 06:47:24;;;;;;;7.40;2.47;;;;;;;5.46;86.80;101132.97;5051145;28;20291;-63
2021/11/11 06:49:51;;;;;;;8.40;2.77;;;;;;;5.50;85.99;101133.59;5051092;28;20608;-68
2021/11/11 06:52:16;;;;;;;7.70;2.50;;;;;;;5.54;86.06;101135.84;5050869;28;20033;-69
2021/11/11 06:54:42;;;;;;;6.17;2.57;;;;;;;5.64;86.30;101145.69;5051818;28;20029;-64
2021/11/11 06:57:09;;;;;;;7.67;2.63;;;;;;;5.68;85.59;101140.03;5037184;28;20502;-64
2021/11/11 06:59:35;;;;;;;7.17;2.43;;;;;;;5.70;84.92;101139.91;5054833;28;20052;-66
2021/11/11 07:02:00;;;;;;;6.80;2.43;;;;;;;5.76;84.96;101150.00;5054918;28;20500;-62
2021/11/11 07:04:26;;;;;;;7.57;2.93;;;;;;;5.83;84.62;101148.56;5055123;28;20033;-67
2021/11/11 07:06:52;;;;;;;9.00;2.20;;;;;;;5.83;83.86;101152.03;5054624;28;20511;-64
2021/11/11 07:09:19;;;;;;;5.53;2.60;;;;;;;5.89;84.22;101151.59;5054795;28;20398;-62
2021/11/11 07:11:44;;;;;;;9.07;3.50;;;;;;;5.94;83.04;101153.84;5054956;28;20206;-62
2021/11/11 07:14:10;;;;;;;9.07;3.30;;;;;;;5.93;84.00;101157.47;5054935;28;20043;-62
2021/11/11 07:16:36;;;;;;;10.00;3.10;;;;;;;5.93;84.22;101157.47;5054780;28;20408;-63
2021/11/11 07:19:03;;;;;;;6.43;2.37;;;;;;;5.96;83.84;101154.56;5054962;28;20033;-65
2021/11/11 07:21:29;;;;;;;8.23;2.07;;;;;;;5.96;84.00;101148.44;5054124;28;20119;-65
2021/11/11 07:23:55;;;;;;;3.23;2.30;;;;;;;5.98;83.45;101143.88;5036304;28;20041;-61
2021/11/11 07:26:21;;;;;;;5.97;2.33;;;;;;;5.83;83.95;101144.13;5054652;28;20063;-57
2021/11/11 07:28:46;;;;;;;4.40;3.20;;;;;;;5.77;83.64;101149.88;5054412;28;20527;-59
2021/11/11 07:31:12;;;;;;;6.40;2.10;;;;;;;5.73;84.53;101145.78;5036392;28;20079;-61
2021/11/11 07:33:39;;;;;;;6.17;2.70;;;;;;;5.79;84.38;101150.63;5053953;28;20080;-60
2021/11/11 07:36:05;;;;;;;6.93;2.83;;;;;;;5.78;84.33;101150.72;5054206;28;20508;-60
2021/11/11 07:38:31;;;;;;;10.70;2.30;;;;;;;5.74;84.79;101155.41;5054217;28;20119;-61
2021/11/11 07:40:57;;;;;;;5.17;2.50;;;;;;;5.68;85.12;101163.81;5054503;28;20120;-66
2021/11/11 07:43:24;;;;;;;4.50;2.37;;;;;;;5.63;85.48;101160.72;5054225;28;20040;-61
2021/11/11 07:45:50;;;;;;;4.60;2.63;;;;;;;5.58;85.20;101165.50;5054034;28;20075;-59
2021/11/11 07:48:15;;;;;;;8.37;2.90;;;;;;;5.55;85.21;101158.69;5054308;28;20471;-60
2021/11/11 07:50:44;;;;;;;5.63;2.60;;;;;;;5.58;85.01;101157.59;5036203;28;20032;-61
2021/11/11 07:53:11;;;;;;;4.37;2.30;;;;;;;5.60;84.63;101158.31;5053680;28;20101;-61
2021/11/11 07:55:39;;;;;;;7.33;2.57;;;;;;;5.76;83.77;101171.97;5054070;28;20056;-62
2021/11/11 07:58:07;;;;;;;5.82;2.72;;;;;;;6.00;82.87;101163.09;5054390;28;20074;-64
2021/11/11 08:00:34;;;;;;;7.80;2.40;;;;;;;6.22;82.02;101184.19;5053681;28;20033;-62
2021/11/11 08:03:00;;;;;;;9.20;2.80;;;;;;;6.24;81.91;101174.34;5053698;28;20045;-61
2021/11/11 08:05:26;;;;;;;9.03;3.13;;;;;;;6.16;81.36;101176.78;5049774;28;20040;-67
2021/11/11 08:07:51;;;;;;;9.63;3.57;;;;;;;6.18;81.25;101180.13;5052841;28;20480;-62
2021/11/11 08:10:19;;;;;;;7.20;2.03;;;;;;;6.31;80.95;101170.22;5054082;28;20031;-62
2021/11/11 08:12:46;;;;;;;5.05;3.05;;;;;;;6.38;80.20;101178.53;5053512;28;20035;-64
2021/11/11 08:15:14;;;;;;;5.00;2.43;;;;;;;6.64;78.86;101192.22;5053563;28;20041;-61
2021/11/11 08:17:39;;;;;;;5.37;2.20;;;;;;;6.78;77.79;101182.19;5053465;28;20040;-64
2021/11/11 08:20:07;;;;;;;4.80;2.20;;;;;;;6.74;78.44;101195.81;5053293;28;20036;-64
2021/11/11 08:22:33;;;;;;;5.00;1.70;;;;;;;6.51;78.23;101189.75;5053268;28;20029;-66
2021/11/11 08:25:00;;;;;;;3.67;1.97;;;;;;;6.35;79.45;101184.88;5053081;28;20392;-66
2021/11/11 08:27:26;;;;;;;4.57;2.20;;;;;;;6.28;78.99;101180.22;5053299;28;20064;-67
2021/11/11 08:29:54;;;;;;;5.23;1.93;;;;;;;6.21;78.92;101182.53;5053434;28;20039;-67
2021/11/11 08:32:20;;;;;;;3.30;2.00;;;;;;;6.13;79.12;101183.16;5053030;28;20123;-66
2021/11/11 08:34:48;;;;;;;3.90;2.37;;;;;;;6.18;79.16;101185.41;5052840;28;20049;-63
2021/11/11 08:37:15;;;;;;;5.73;2.67;;;;;;;6.33;79.38;101180.66;5035571;28;20491;-67
2021/11/11 08:39:42;;;;;;;3.30;2.07;;;;;;;6.32;77.74;101174.53;5053385;28;20051;-64
2021/11/11 08:42:10;;;;;;;6.93;2.77;;;;;;;6.30;78.72;101180.94;5035131;28;20032;-63
2021/11/11 08:44:42;;;;;;;5.03;2.40;;;;;;;6.21;79.19;101183.34;5035019;28;20143;-63
2021/11/11 08:47:11;;;;;;;4.23;2.10;;;;;;;6.13;79.19;101180.50;5052602;28;20049;-66
2021/11/11 08:49:37;;;;;;;5.30;1.70;;;;;;;6.05;79.45;101174.97;5052661;28;20119;-60
2021/11/11 08:52:03;;;;;;;4.07;2.10;;;;;;;5.97;80.39;101163.34;5053041;28;20128;-64
2021/11/11 08:54:28;;;;;;;6.83;2.43;;;;;;;5.90;81.07;101169.13;5034857;28;20119;-60
2021/11/11 08:56:55;;;;;;;21.53;2.67;;;;;;;5.85;81.25;101163.34;5052459;28;20037;-60
2021/11/11 08:59:26;;;;;;;5.17;1.97;;;;;;;5.95;81.69;101176.69;5052568;28;20037;-63
2021/11/11 09:01:55;;;;;;;5.67;2.07;;;;;;;5.96;81.30;101177.53;5052539;28;20067;-64
2021/11/11 09:04:22;;;;;;;7.13;2.57;;;;;;;5.95;81.06;101174.03;5034858;28;20032;-62
2021/11/11 09:06:50;;;;;;;5.17;1.97;;;;;;;5.98;81.52;101167.66;5052556;28;20045;-63
2021/11/11 09:09:18;;;;;;;8.32;3.28;;;;;;;6.02;81.36;101177.03;5052343;28;20060;-64
2021/11/11 09:11:45;;;;;;;6.03;2.23;;;;;;;6.04;81.07;101177.72;5052425;28;20488;-66
2021/11/11 09:14:12;;;;;;;5.57;2.20;;;;;;;6.05;80.40;101176.78;5034173;28;20526;-64
2021/11/11 09:16:40;;;;;;;4.87;2.47;;;;;;;6.05;80.82;101179.41;5052614;28;20035;-63
2021/11/11 09:19:08;;;;;;;6.90;2.27;;;;;;;6.04;80.06;101189.16;5052503;28;20041;-63
2021/11/11 09:21:34;;;;;;;3.63;2.00;;;;;;;6.05;80.44;101187.34;5051976;28;20060;-62
2021/11/11 09:24:01;;;;;;;6.20;2.00;;;;;;;6.03;80.74;101184.84;5052228;28;20582;-64
2021/11/11 09:26:27;;;;;;;3.87;1.50;;;;;;;5.98;80.47;101184.38;5052180;28;20033;-64
2021/11/11 09:28:54;;;;;;;3.37;1.90;;;;;;;5.98;80.79;101172.94;5051760;28;20161;-65
2021/11/11 09:31:21;;;;;;;6.60;1.90;;;;;;;6.04;79.95;101164.50;5051892;28;20519;-66
2021/11/11 09:33:47;;;;;;;8.00;2.00;;;;;;;6.18;79.67;101173.03;5051788;28;20438;-65
2021/11/11 09:36:16;;;;;;;6.10;1.90;;;;;;;6.19;79.28;101187.09;5052016;28;20053;-64
2021/11/11 09:38:42;;;;;;;2.30;2.10;;;;;;;6.26;79.75;101182.97;5051977;28;20194;-64
2021/11/11 09:41:10;;;;;;;4.43;2.10;;;;;;;6.35;78.87;101187.50;5051861;28;20530;-64
2021/11/11 09:43:37;;;;;;;4.90;2.13;;;;;;;6.30;78.54;101187.06;5051683;28;20103;-66
2021/11/11 09:46:05;;;;;;;4.27;2.20;;;;;;;6.29;78.45;101184.53;5034283;28;20067;-68
2021/11/11 09:48:34;;;;;;;5.23;1.90;;;;;;;6.41;78.39;101194.13;5051686;28;20045;-63
2021/11/11 09:51:03;;;;;;;4.50;1.97;;;;;;;6.44;78.18;101186.78;5051939;28;20040;-62
2021/11/11 09:53:30;;;;;;;5.77;2.33;;;;;;;6.36;79.22;101191.88;5051560;28;20419;-66
2021/11/11 09:58:49;;;;;;;4.43;2.47;;;;;;;6.60;78.05;101182.88;5051878;28;20467;-64
2021/11/11 10:01:23;;;;;;;9.90;2.40;;;;;;;6.74;77.29;101187.88;5051976;28;20056;-63
2021/11/11 10:03:50;;;;;;;3.63;1.83;;;;;;;6.69;78.09;101198.00;5033587;28;20057;-64
2021/11/11 10:06:27;;;;;;;3.70;2.00;;;;;;;6.46;78.31;101186.66;5051254;28;20090;-65
2021/11/11 10:09:01;;;;;;;6.47;2.30;;;;;;;6.42;78.40;101191.38;5051300;28;20087;-62
2021/11/11 10:11:35;;;;;;;7.40;2.47;;;;;;;6.40;78.44;101187.16;5051457;28;20399;-62
2021/11/11 10:14:06;;;;;;;5.87;2.37;;;;;;;6.37;79.26;101172.38;5051403;28;20090;-60
2021/11/11 10:16:47;;;;;;;7.13;3.20;;;;;;;6.37;78.75;101180.31;5051358;28;20040;-63
2021/11/11 10:19:15;;;;;;;6.00;1.87;;;;;;;6.41;78.96;101176.47;5051697;28;20036;-64
2021/11/11 10:22:13;;;;;;;12.75;2.53;;;;;;;6.52;78.74;101171.13;5051228;28;20519;-62
2021/11/11 10:24:46;;;;;;;5.22;1.92;;;;;;;6.43;78.50;101171.03;5051165;28;20045;-60
2021/11/11 10:27:28;;;;;;;5.03;2.17;;;;;;;6.47;77.76;101170.66;5051023;28;20033;-62
2021/11/11 10:30:03;;;;;;;10.43;2.30;;;;;;;6.49;78.21;101166.06;5052517;28;20480;-67
2021/11/11 10:32:33;;;;;;;7.73;2.37;;;;;;;6.43;78.76;101161.28;5037441;28;20033;-62
2021/11/11 10:35:38;;;;;;;9.40;2.50;;;;;;;6.33;78.58;101163.00;5037435;28;20064;-64
2021/11/11 10:38:14;;;;;;;6.30;2.70;;;;;;;6.30;78.39;101171.19;5052431;28;20411;-62
2021/11/11 10:40:43;;;;;;;3.47;1.80;;;;;;;6.31;78.39;101161.44;5037036;28;20029;-63
2021/11/11 10:43:15;;;;;;;4.20;2.08;;;;;;;6.52;77.75;101155.22;5053479;28;20450;-65
2021/11/11 10:45:45;;;;;;;5.93;2.63;;;;;;;6.64;76.77;101158.66;5053336;28;20496;-63
2021/11/11 10:48:16;;;;;;;10.07;2.70;;;;;;;6.61;77.11;101168.66;5053706;28;20055;-64
2021/11/11 10:50:45;;;;;;;9.03;2.13;;;;;;;6.49;76.85;101152.84;5035737;28;20068;-64
2021/11/11 10:53:14;;;;;;;6.40;1.87;;;;;;;6.38;77.16;101152.91;5053121;28;20060;-64
2021/11/11 10:55:42;;;;;;;5.97;1.83;;;;;;;6.29;77.42;101155.44;5053484;28;20041;-64
2021/11/11 10:58:11;;;;;;;6.55;2.72;;;;;;;6.23;77.78;101143.56;5054492;28;20040;-63
2021/11/11 11:00:36;;;;;;;;;;;;;;;6.29;77.05;101161.56;5055168;28;20028;-63
2021/11/11 11:03:15;;;;;;;6.00;2.27;;;;;;;6.26;77.07;101163.63;5054968;28;19925;-63
2021/11/11 11:05:48;;;;;;;3.83;1.87;;;;;;;6.24;77.50;101158.47;5054876;28;20037;-66
2021/11/11 11:08:20;;;;;;;10.87;1.93;;;;;;;6.23;77.22;101148.84;5054703;28;20041;-65
2021/11/11 11:10:51;;;;;;;5.37;2.43;;;;;;;6.19;77.67;101161.50;5054594;28;20032;-62
2021/11/11 11:13:21;;;;;;;10.07;2.73;;;;;;;6.18;77.50;101151.03;5055018;28;20508;-64
2021/11/11 11:15:49;;;;;;;7.67;2.77;;;;;;;6.11;77.83;101155.16;5053938;28;20442;-64
2021/11/11 11:18:18;;;;;;;6.82;2.25;;;;;;;6.06;77.84;101162.59;5055126;28;20060;-63
2021/11/11 11:20:44;;;;;;;;;;;;;;;6.04;77.31;101160.06;5036496;28;20131;-63
2021/11/11 11:23:19;;;;;;;7.03;2.17;;;;;;;5.98;78.00;101150.00;5054380;28;20004;-64
2021/11/11 11:26:16;;;;;;;10.30;3.23;;;;;;;5.95;78.42;101146.75;5054432;28;20430;-63
2021/11/11 11:28:48;;;;;;;5.37;2.80;;;;;;;5.96;78.28;101140.50;5053038;28;20052;-62
2021/11/11 11:31:26;;;;;;;6.30;2.17;;;;;;;5.81;77.92;101116.13;5054685;28;20032;-64
2021/11/11 11:33:55;;;;;;;12.43;2.30;;;;;;;5.93;77.34;101135.47;5054044;28;20033;-65
2021/11/11 11:36:34;;;;;;;6.63;1.93;;;;;;;5.92;77.04;101139.91;5054596;28;20051;-65
2021/11/11 11:39:00;;;;;;;3.75;1.85;;;;;;;5.88;77.24;101139.28;5054424;28;20055;-65
2021/11/11 11:41:42;;;;;;;11.73;1.70;;;;;;;5.79;77.65;101124.19;5034188;28;20044;-66
2021/11/11 11:44:34;;;;;;;6.23;2.27;;;;;;;5.83;77.90;101140.63;5052845;28;20523;-67
2021/11/11 11:47:10;;;;;;;8.50;2.30;;;;;;;5.77;77.24;101135.81;5054166;28;20032;-66
2021/11/11 11:49:37;;;;;;;10.30;3.13;;;;;;;5.70;77.31;101118.78;5054086;28;20472;-64
2021/11/11 11:52:05;;;;;;;6.83;2.37;;;;;;;5.72;77.34;101130.06;5053353;28;20127;-65
2021/11/11 11:54:38;;;;;;;8.82;2.78;;;;;;;5.70;78.01;101135.47;5053624;28;20036;-64
2021/11/11 11:57:10;;;;;;;2.97;2.33;;;;;;;5.69;77.11;101132.94;5053797;28;20078;-64